Time;durP1;ratioP1;P1;durP2;ratioP2;P2;SDS_P1;SDS_P2;PMS_P1;PMS_P2;Temp;Humidity;BMP_temperature;BMP_pressure;BME280_temperature;BME280_humidity;BME280_pressure;Samples;Min_cycle;Max_cycle;Signal;HPM_P1;HPM_P2
2023/04/02 00:01:45;;;;;;;5.95;5.35;;;4.70;99.90;;;;;;4938353;28;94050;-38
2023/04/02 00:04:14;;;;;;;7.07;5.68;;;4.70;99.90;;;;;;4948778;28;93762;-33
2023/04/02 00:06:44;;;;;;;8.88;5.70;;;4.70;99.90;;;;;;4937260;28;95225;-35
2023/04/02 00:09:12;;;;;;;7.22;5.90;;;4.70;99.90;;;;;;4937135;28;95439;-35
2023/04/02 00:11:44;;;;;;;9.98;6.75;;;4.70;99.90;;;;;;4936961;28;94586;-33
2023/04/02 00:14:15;;;;;;;11.25;7.05;;;4.70;99.90;;;;;;4937682;28;93131;-32
2023/04/02 00:16:41;;;;;;;12.38;6.95;;;4.70;99.90;;;;;;4937537;28;95245;-34
2023/04/02 00:19:13;;;;;;;7.25;6.15;;;4.70;99.90;;;;;;4950039;28;95304;-32
2023/04/02 00:21:42;;;;;;;9.30;7.30;;;4.70;99.90;;;;;;4937565;28;94642;-33
2023/04/02 00:24:16;;;;;;;11.18;8.02;;;4.70;99.90;;;;;;4951557;28;93994;-35
2023/04/02 00:26:45;;;;;;;7.32;5.53;;;4.70;99.90;;;;;;4956094;28;94818;-35
2023/04/02 00:29:13;;;;;;;8.65;5.93;;;4.80;99.90;;;;;;4947555;28;96524;-33
2023/04/02 00:31:45;;;;;;;10.60;9.13;;;4.60;99.90;;;;;;4937751;28;94663;-34
2023/04/02 00:34:26;;;;;;;9.05;5.82;;;4.60;99.90;;;;;;4940718;28;94619;-37
2023/04/02 00:36:53;;;;;;;15.60;7.50;;;4.60;99.90;;;;;;4943133;28;93537;-35
2023/04/02 00:39:25;;;;;;;10.38;6.85;;;4.50;99.90;;;;;;4936862;28;94346;-35
2023/04/02 00:42:05;;;;;;;9.32;7.53;;;4.50;99.90;;;;;;4919690;28;94581;-31
2023/04/02 00:44:41;;;;;;;9.15;7.03;;;4.50;99.90;;;;;;4937087;28;94767;-30
2023/04/02 00:47:21;;;;;;;8.10;7.22;;;4.50;99.90;;;;;;4935035;28;93829;-33
2023/04/02 00:49:54;;;;;;;8.20;6.70;;;4.50;99.90;;;;;;4936686;28;93563;-30
2023/04/02 00:52:24;;;;;;;9.07;6.18;;;4.40;99.90;;;;;;4943341;28;94533;-32
2023/04/02 00:55:07;;;;;;;7.93;5.82;;;4.40;99.90;;;;;;4945806;28;92182;-32
2023/04/02 00:57:33;;;;;;;6.88;6.05;;;4.40;99.90;;;;;;4939121;28;95926;-35
2023/04/02 01:00:32;;;;;;;12.40;8.05;;;4.30;99.90;;;;;;4939358;28;95081;-32
2023/04/02 01:03:16;;;;;;;8.43;6.53;;;4.30;99.90;;;;;;4940541;28;92691;-36
2023/04/02 01:05:54;;;;;;;7.50;5.50;;;4.30;99.90;;;;;;4939869;28;92750;-31
2023/04/02 01:08:20;;;;;;;;;;;4.30;99.90;;;;;;4943949;28;95110;-32
2023/04/02 01:10:48;;;;;;;9.35;4.55;;;4.20;99.90;;;;;;4949235;28;95150;-34
2023/04/02 01:13:43;;;;;;;8.25;4.88;;;4.10;99.90;;;;;;4940024;28;93237;-32
2023/04/02 01:16:20;;;;;;;5.40;3.92;;;4.00;99.90;;;;;;4939804;28;91486;-34
2023/04/02 01:19:03;;;;;;;6.95;4.97;;;4.00;99.90;;;;;;4939619;28;94254;-33
2023/04/02 01:21:31;;;;;;;9.27;5.47;;;3.80;99.90;;;;;;4952392;28;95185;-33
2023/04/02 01:24:04;;;;;;;7.80;4.93;;;3.80;99.90;;;;;;4939178;28;94211;-32
2023/04/02 01:26:56;;;;;;;5.78;3.80;;;3.70;99.90;;;;;;4940117;28;93752;-34
2023/04/02 01:29:24;;;;;;;7.25;3.78;;;3.60;99.90;;;;;;4939190;28;94450;-33
2023/04/02 01:31:52;;;;;;;10.48;5.28;;;3.50;99.90;;;;;;4938428;28;94074;-34
2023/04/02 01:34:21;;;;;;;4.67;4.17;;;3.40;99.90;;;;;;4939548;28;94415;-34
2023/04/02 01:37:15;;;;;;;7.13;4.65;;;3.30;99.90;;;;;;4951432;28;94325;-34
2023/04/02 01:40:39;;;;;;;7.38;4.03;;;3.20;99.90;;;;;;4939017;28;94319;-32
2023/04/02 01:43:37;;;;;;;6.20;4.80;;;3.20;99.90;;;;;;4908887;28;93983;-33
2023/04/02 01:46:33;;;;;;;6.35;4.75;;;3.10;99.90;;;;;;4916551;28;93430;-32
2023/04/02 01:49:18;;;;;;;5.00;4.60;;;3.10;99.90;;;;;;4939380;28;94129;-34
2023/04/02 01:51:49;;;;;;;7.97;4.53;;;3.10;99.90;;;;;;4938633;28;94813;-33
2023/04/02 01:54:16;;;;;;;5.82;4.32;;;3.00;99.90;;;;;;4946898;28;95143;-33
2023/04/02 01:56:44;;;;;;;6.47;4.15;;;2.90;99.90;;;;;;4942734;28;92729;-32
2023/04/02 01:59:11;;;;;;;6.97;4.55;;;2.90;99.90;;;;;;4938421;28;93763;-33
2023/04/02 02:01:53;;;;;;;5.03;4.28;;;2.80;99.90;;;;;;4941302;28;95197;-38
2023/04/02 02:04:19;;;;;;;4.88;3.83;;;2.80;99.90;;;;;;4957362;28;95030;-36
2023/04/02 02:06:45;;;;;;;8.48;3.92;;;2.80;99.90;;;;;;4938885;28;92670;-32
2023/04/02 02:09:18;;;;;;;6.38;5.03;;;2.90;99.90;;;;;;4939819;28;92285;-35
2023/04/02 02:11:44;;;;;;;8.00;3.60;;;2.70;99.90;;;;;;4938627;28;94733;-34
2023/04/02 02:14:20;;;;;;;7.40;3.83;;;2.70;99.90;;;;;;4937421;28;94235;-32
2023/04/02 02:16:46;;;;;;;5.70;5.13;;;2.60;99.90;;;;;;4938382;28;94607;-36
2023/04/02 02:19:35;;;;;;;5.35;3.40;;;2.50;99.90;;;;;;4949641;28;94236;-38
2023/04/02 02:22:26;;;;;;;7.35;4.68;;;2.50;99.90;;;;;;4950464;28;94965;-33
2023/04/02 02:24:52;;;;;;;8.27;4.82;;;2.40;99.90;;;;;;4938247;28;94454;-33
2023/04/02 02:27:26;;;;;;;5.00;4.32;;;2.40;99.90;;;;;;4938935;28;93715;-38
2023/04/02 02:30:15;;;;;;;4.32;3.72;;;2.50;99.90;;;;;;4938038;28;92599;-36
2023/04/02 02:33:16;;;;;;;3.70;3.35;;;2.40;99.90;;;;;;4950615;28;94320;-35
2023/04/02 02:35:44;;;;;;;5.35;4.40;;;2.40;99.90;;;;;;4955342;28;94266;-35
2023/04/02 02:38:48;;;;;;;5.32;3.80;;;2.20;99.90;;;;;;4948042;28;92589;-33
2023/04/02 02:41:36;;;;;;;7.47;4.32;;;2.20;99.90;;;;;;4938680;28;92155;-37
2023/04/02 02:44:04;;;;;;;;;;;2.20;99.90;;;;;;4955607;28;96694;-37
2023/04/02 02:46:32;;;;;;;8.05;3.80;;;2.10;99.90;;;;;;4946223;28;94620;-33
2023/04/02 02:49:01;;;;;;;7.50;4.10;;;2.10;99.90;;;;;;4938858;28;94426;-38
2023/04/02 02:51:36;;;;;;;7.47;3.38;;;2.00;99.90;;;;;;4951236;28;93449;-35
2023/04/02 02:54:04;;;;;;;5.38;3.90;;;2.10;99.90;;;;;;4950044;28;94804;-34
2023/04/02 02:56:33;;;;;;;4.30;3.58;;;2.00;99.90;;;;;;4937565;28;93998;-32
2023/04/02 02:59:00;;;;;;;5.28;3.85;;;2.00;99.90;;;;;;4937552;28;94576;-32
2023/04/02 03:01:28;;;;;;;15.25;4.78;;;2.00;99.90;;;;;;4937948;28;93449;-38
2023/04/02 03:03:54;;;;;;;4.40;3.37;;;2.00;99.90;;;;;;4938156;28;94558;-34
2023/04/02 03:06:20;;;;;;;5.35;3.50;;;2.10;99.90;;;;;;4950379;28;94149;-32
2023/04/02 03:09:22;;;;;;;8.25;3.80;;;2.00;99.90;;;;;;4937845;28;95087;-35
2023/04/02 03:11:54;;;;;;;4.55;3.97;;;2.00;99.90;;;;;;4936147;28;94963;-36
2023/04/02 03:14:37;;;;;;;5.93;3.65;;;2.10;99.90;;;;;;4937213;28;94442;-36
2023/04/02 03:17:18;;;;;;;6.68;3.90;;;2.10;99.90;;;;;;4936794;28;94908;-34
2023/04/02 03:19:49;;;;;;;5.97;3.17;;;2.20;99.90;;;;;;4943616;28;92622;-33
2023/04/02 03:22:28;;;;;;;5.90;3.92;;;2.20;99.90;;;;;;4944139;28;92561;-36
2023/04/02 03:25:04;;;;;;;4.03;3.22;;;2.20;99.90;;;;;;4937586;28;93294;-31
2023/04/02 03:27:52;;;;;;;3.22;2.55;;;2.20;99.90;;;;;;4937206;28;94916;-32
2023/04/02 03:30:30;;;;;;;;;;;2.20;99.90;;;;;;4938317;28;92774;-32
2023/04/02 03:33:02;;;;;;;5.15;3.25;;;2.10;99.90;;;;;;4938595;28;93677;-39
2023/04/02 03:35:53;;;;;;;4.03;3.60;;;2.10;99.90;;;;;;4938336;28;95484;-35
2023/04/02 03:38:21;;;;;;;4.72;4.28;;;2.20;99.90;;;;;;4933565;28;96080;-32
2023/04/02 03:40:53;;;;;;;6.20;4.10;;;2.20;99.90;;;;;;4937228;28;93414;-32
2023/04/02 03:43:30;;;;;;;11.40;5.10;;;2.10;99.90;;;;;;4938432;28;93511;-32
2023/04/02 03:46:21;;;;;;;9.98;5.30;;;2.10;99.90;;;;;;4937052;28;94743;-33
2023/04/02 03:49:04;;;;;;;7.72;3.92;;;2.10;99.90;;;;;;4949554;28;94561;-33
2023/04/02 03:51:39;;;;;;;4.10;3.70;;;2.20;99.90;;;;;;4937356;28;93484;-33
2023/04/02 03:54:12;;;;;;;4.25;3.85;;;2.10;99.90;;;;;;4937972;28;93337;-32
2023/04/02 03:56:38;;;;;;;7.60;4.53;;;2.10;99.90;;;;;;4937365;28;94811;-33
2023/04/02 03:59:34;;;;;;;5.35;4.03;;;2.10;99.90;;;;;;4945988;28;94116;-34
2023/04/02 04:02:06;;;;;;;5.60;3.58;;;2.10;99.90;;;;;;4943191;28;94227;-33
2023/04/02 04:04:38;;;;;;;3.35;3.05;;;2.10;99.90;;;;;;4950557;28;93350;-34
2023/04/02 04:07:09;;;;;;;4.50;3.25;;;2.10;99.90;;;;;;4936227;28;94486;-35
2023/04/02 04:09:38;;;;;;;5.78;3.97;;;2.10;99.90;;;;;;4937151;28;94413;-32
2023/04/02 04:12:03;;;;;;;;;;;2.10;99.90;;;;;;4936214;28;94206;-33
2023/04/02 04:14:33;;;;;;;4.00;3.65;;;2.10;99.90;;;;;;4941063;28;92185;-31
2023/04/02 04:17:12;;;;;;;2.92;2.70;;;2.00;99.90;;;;;;4946632;28;94673;-37
2023/04/02 04:19:53;;;;;;;7.97;4.68;;;2.10;99.90;;;;;;4937602;28;94724;-34
2023/04/02 04:22:31;;;;;;;4.80;3.10;;;2.00;99.90;;;;;;4937284;28;93856;-37
2023/04/02 04:24:59;;;;;;;5.47;3.73;;;2.00;99.90;;;;;;4937372;28;95680;-34
2023/04/02 04:27:42;;;;;;;3.42;3.00;;;2.00;99.90;;;;;;4936973;28;95636;-31
2023/04/02 04:30:33;;;;;;;4.13;3.08;;;2.00;99.90;;;;;;4940410;28;95583;-35
2023/04/02 04:33:10;;;;;;;8.90;4.93;;;1.90;99.90;;;;;;4940079;28;94075;-33
2023/04/02 04:35:38;;;;;;;6.28;4.30;;;2.00;99.90;;;;;;4953606;28;92292;-32
2023/04/02 04:38:26;;;;;;;6.28;3.55;;;1.90;99.90;;;;;;4940377;28;94588;-32
2023/04/02 04:41:23;;;;;;;5.85;3.00;;;1.90;99.90;;;;;;4952704;28;94887;-33
2023/04/02 04:44:16;;;;;;;5.82;2.53;;;1.90;99.90;;;;;;4937377;28;92224;-34
2023/04/02 04:46:51;;;;;;;4.95;3.88;;;1.80;99.90;;;;;;4940167;28;92781;-36
2023/04/02 04:49:26;;;;;;;5.88;2.83;;;1.80;99.90;;;;;;4940822;28;95587;-32
2023/04/02 04:52:05;;;;;;;3.55;3.28;;;1.80;99.90;;;;;;4942564;28;94440;-35
2023/04/02 04:54:31;;;;;;;4.78;2.63;;;1.70;99.90;;;;;;4946778;28;94395;-32
2023/04/02 04:57:02;;;;;;;5.40;3.47;;;1.80;99.90;;;;;;4952003;28;93580;-35
2023/04/02 04:59:53;;;;;;;3.17;2.88;;;1.80;99.90;;;;;;4939645;28;95301;-36
2023/04/02 05:02:26;;;;;;;4.65;2.90;;;1.80;99.90;;;;;;4940378;28;93800;-34
2023/04/02 05:04:52;;;;;;;8.75;3.33;;;1.80;99.90;;;;;;4939878;28;94326;-37
2023/04/02 05:07:26;;;;;;;4.38;3.13;;;1.80;99.90;;;;;;4950476;28;93199;-32
2023/04/02 05:10:23;;;;;;;8.27;3.33;;;1.80;99.90;;;;;;4940918;28;94596;-34
2023/04/02 05:13:16;;;;;;;6.32;3.13;;;1.80;99.90;;;;;;4940407;28;94235;-33
2023/04/02 05:16:13;;;;;;;3.75;3.40;;;1.80;99.90;;;;;;4939932;28;93083;-32
2023/04/02 05:18:55;;;;;;;3.40;2.10;;;1.70;99.90;;;;;;4939340;28;92551;-35
2023/04/02 05:21:41;;;;;;;3.00;2.67;;;1.80;99.90;;;;;;4937565;28;96343;-33
2023/04/02 05:24:43;;;;;;;3.58;2.20;;;1.70;99.90;;;;;;4954338;28;94579;-32
2023/04/02 05:27:23;;;;;;;3.55;1.80;;;1.70;99.90;;;;;;4944887;28;92994;-36
2023/04/02 05:30:08;;;;;;;2.30;2.10;;;1.80;99.90;;;;;;4939363;28;93601;-34
2023/04/02 05:32:43;;;;;;;2.67;2.28;;;1.70;99.90;;;;;;4939672;28;94790;-33
2023/04/02 05:35:22;;;;;;;9.98;2.03;;;1.70;99.90;;;;;;4951481;28;94213;-33
2023/04/02 05:37:48;;;;;;;2.08;1.75;;;1.70;99.90;;;;;;4959125;28;93113;-35
2023/04/02 05:40:22;;;;;;;5.13;2.35;;;1.60;99.90;;;;;;4945147;28;93632;-37
2023/04/02 05:42:51;;;;;;;1.67;1.55;;;1.60;99.90;;;;;;4939010;28;94725;-33
2023/04/02 05:45:30;;;;;;;2.15;2.00;;;1.60;99.90;;;;;;4938918;28;94381;-32
2023/04/02 05:48:01;;;;;;;6.43;1.65;;;1.60;99.90;;;;;;4939327;28;95485;-33
2023/04/02 05:50:36;;;;;;;1.75;1.40;;;1.50;99.90;;;;;;4939666;28;92254;-33
2023/04/02 05:53:29;;;;;;;11.82;2.83;;;1.60;99.90;;;;;;4939698;28;94645;-36
2023/04/02 05:56:14;;;;;;;7.18;1.63;;;1.50;99.90;;;;;;4939079;28;95764;-32
2023/04/02 05:58:59;;;;;;;3.30;2.30;;;1.60;99.90;;;;;;4939170;28;92829;-37
2023/04/02 06:01:44;;;;;;;4.82;2.45;;;1.60;99.90;;;;;;4939306;28;92340;-33
2023/04/02 06:04:35;;;;;;;5.82;2.45;;;1.60;99.90;;;;;;4940573;28;94068;-33
2023/04/02 06:07:22;;;;;;;4.65;2.38;;;1.60;99.90;;;;;;4939353;28;94629;-34
2023/04/02 06:10:14;;;;;;;5.80;2.65;;;1.60;99.90;;;;;;4939419;28;94057;-38
2023/04/02 06:13:02;;;;;;;1.38;1.25;;;1.70;99.90;;;;;;4939471;28;94002;-37
2023/04/02 06:15:30;;;;;;;4.20;1.45;;;1.70;99.90;;;;;;4938855;28;95781;-33
2023/04/02 06:18:18;;;;;;;9.57;2.67;;;1.70;99.90;;;;;;4938680;28;95334;-33
2023/04/02 06:20:45;;;;;;;2.78;2.35;;;1.80;99.90;;;;;;4939344;28;94037;-37
2023/04/02 06:23:29;;;;;;;5.97;2.35;;;1.80;99.90;;;;;;4939039;28;94576;-33
2023/04/02 06:26:02;;;;;;;7.38;2.40;;;1.80;99.90;;;;;;4938281;28;94779;-37
2023/04/02 06:28:44;;;;;;;2.80;1.90;;;1.90;99.90;;;;;;4938536;28;95042;-35
2023/04/02 06:31:22;;;;;;;2.03;1.25;;;1.90;99.90;;;;;;4939191;28;92624;-36
2023/04/02 06:33:51;;;;;;;3.60;1.63;;;2.00;99.90;;;;;;4952187;28;92550;-33
2023/04/02 06:36:18;;;;;;;5.32;2.25;;;2.00;99.90;;;;;;4938296;28;96024;-34
2023/04/02 06:38:46;;;;;;;6.65;1.42;;;2.00;99.90;;;;;;4953043;28;93186;-35
2023/04/02 06:41:19;;;;;;;3.10;2.58;;;2.10;99.90;;;;;;4948403;28;94098;-34
2023/04/02 06:43:52;;;;;;;1.58;1.48;;;2.10;99.90;;;;;;4938468;28;94447;-33
2023/04/02 06:46:47;;;;;;;3.83;3.00;;;2.10;99.90;;;;;;4948073;28;95328;-33
2023/04/02 06:49:20;;;;;;;1.63;1.52;;;2.20;99.90;;;;;;4931176;28;94456;-35
2023/04/02 06:51:49;;;;;;;6.95;2.88;;;2.30;99.90;;;;;;4938116;28;93919;-35
2023/04/02 06:54:16;;;;;;;1.50;1.40;;;2.40;99.90;;;;;;4938655;28;94128;-34
2023/04/02 06:56:50;;;;;;;2.53;1.75;;;2.40;99.90;;;;;;4939197;28;94867;-31
2023/04/02 06:59:17;;;;;;;3.47;2.55;;;2.50;99.90;;;;;;4946213;28;93954;-36
2023/04/02 07:01:51;;;;;;;8.88;2.40;;;2.60;99.90;;;;;;4938451;28;94108;-37
2023/04/02 07:04:18;;;;;;;3.78;2.65;;;2.60;99.90;;;;;;4937952;28;93103;-31
2023/04/02 07:06:44;;;;;;;2.78;1.48;;;2.70;99.90;;;;;;4937339;28;96958;-32
2023/04/02 07:09:12;;;;;;;6.10;1.85;;;2.70;99.90;;;;;;4938575;28;95023;-32
2023/04/02 07:11:37;;;;;;;1.10;1.00;;;2.80;99.90;;;;;;4938170;28;93969;-34
2023/04/02 07:14:03;;;;;;;2.70;1.70;;;3.00;99.90;;;;;;4937981;28;92819;-33
2023/04/02 07:16:32;;;;;;;1.58;1.48;;;3.20;99.90;;;;;;4944577;28;94709;-33
2023/04/02 07:18:58;;;;;;;2.92;2.20;;;3.20;99.90;;;;;;4937989;28;94202;-34
2023/04/02 07:21:27;;;;;;;2.55;1.73;;;3.40;99.90;;;;;;4951308;28;92887;-37
2023/04/02 07:23:53;;;;;;;3.35;2.08;;;3.50;99.90;;;;;;4951112;28;92894;-35
2023/04/02 07:26:22;;;;;;;1.23;1.13;;;3.60;99.90;;;;;;4937388;28;94416;-31
2023/04/02 07:28:48;;;;;;;3.75;2.05;;;3.60;99.90;;;;;;4940490;28;94362;-34
2023/04/02 07:31:18;;;;;;;3.53;2.22;;;3.70;99.90;;;;;;4938492;28;94145;-31
2023/04/02 07:33:45;;;;;;;11.52;3.53;;;3.80;99.90;;;;;;4937462;28;93609;-35
2023/04/02 07:36:20;;;;;;;5.20;2.63;;;3.70;99.90;;;;;;4948769;28;94940;-32
2023/04/02 07:38:46;;;;;;;4.68;1.85;;;3.70;99.90;;;;;;4937420;28;93137;-34
2023/04/02 07:41:12;;;;;;;6.32;1.83;;;3.80;99.90;;;;;;4948647;28;92061;-33
2023/04/02 07:43:38;;;;;;;3.17;1.88;;;3.90;99.90;;;;;;4936897;28;93720;-33
2023/04/02 07:46:05;;;;;;;5.28;1.95;;;3.90;99.90;;;;;;4940856;28;95347;-34
2023/04/02 07:48:31;;;;;;;3.28;2.45;;;3.90;99.90;;;;;;4950229;28;93903;-36
2023/04/02 07:50:57;;;;;;;3.88;2.20;;;3.70;99.90;;;;;;4943009;28;94735;-32
2023/04/02 07:53:34;;;;;;;1.95;1.85;;;3.50;99.90;;;;;;4941508;28;93112;-35
2023/04/02 07:56:02;;;;;;;3.20;2.28;;;3.40;99.90;;;;;;4935839;28;94478;-37
2023/04/02 07:58:29;;;;;;;2.87;2.07;;;3.30;99.90;;;;;;4936173;28;94947;-31
2023/04/02 08:00:54;;;;;;;7.55;2.70;;;3.30;99.90;;;;;;4945306;28;92222;-31
2023/04/02 08:03:20;;;;;;;3.08;2.80;;;3.30;99.90;;;;;;4948444;28;95418;-33
2023/04/02 08:06:05;;;;;;;5.57;2.47;;;3.30;99.90;;;;;;4937083;28;94651;-36
2023/04/02 08:08:31;;;;;;;2.80;2.38;;;3.30;99.90;;;;;;4937693;28;95881;-32
2023/04/02 08:10:56;;;;;;;2.42;2.22;;;3.40;99.90;;;;;;4948205;28;93963;-33
2023/04/02 08:13:22;;;;;;;2.53;2.25;;;3.80;99.90;;;;;;4950491;28;92611;-32
2023/04/02 08:15:47;;;;;;;2.10;1.85;;;4.20;99.90;;;;;;4946984;28;94730;-33
2023/04/02 08:18:13;;;;;;;2.22;1.98;;;4.50;99.90;;;;;;4935694;28;94147;-37
2023/04/02 08:20:39;;;;;;;6.00;2.63;;;4.70;99.90;;;;;;4936791;28;94010;-35
2023/04/02 08:23:11;;;;;;;7.68;3.35;;;5.00;99.90;;;;;;4942966;28;93743;-36
2023/04/02 08:25:36;;;;;;;2.55;1.90;;;5.10;99.90;;;;;;4941845;28;95106;-36
2023/04/02 08:28:02;;;;;;;3.47;2.38;;;4.60;99.90;;;;;;4931839;28;94583;-36
2023/04/02 08:30:27;;;;;;;4.22;2.63;;;4.50;99.90;;;;;;4939915;28;94992;-35
2023/04/02 08:32:53;;;;;;;2.22;2.00;;;4.60;99.90;;;;;;4932692;28;93139;-34
2023/04/02 08:35:19;;;;;;;5.32;2.38;;;4.90;99.90;;;;;;4943504;28;94297;-35
2023/04/02 08:37:44;;;;;;;3.40;1.75;;;5.00;99.90;;;;;;4946126;28;94704;-35
2023/04/02 08:40:30;;;;;;;4.85;3.13;;;5.10;99.90;;;;;;4934019;28;92965;-32
2023/04/02 08:43:19;;;;;;;2.40;2.00;;;5.10;99.90;;;;;;4933985;28;92118;-33
2023/04/02 08:46:06;;;;;;;6.55;2.75;;;5.10;99.90;;;;;;4933046;28;95729;-35
2023/04/02 08:48:35;;;;;;;5.07;2.58;;;5.30;99.90;;;;;;4943908;28;95467;-32
2023/04/02 08:51:03;;;;;;;4.88;2.15;;;5.40;99.90;;;;;;4943035;28;92576;-34
2023/04/02 08:53:34;;;;;;;3.05;2.08;;;5.40;99.90;;;;;;4933850;28;92900;-31
2023/04/02 08:56:16;;;;;;;2.67;1.98;;;5.70;99.90;;;;;;4932370;28;94694;-32
2023/04/02 08:58:53;;;;;;;5.00;2.53;;;5.90;99.90;;;;;;4933785;28;94330;-34
2023/04/02 09:01:26;;;;;;;3.05;2.78;;;5.90;99.90;;;;;;4933248;28;93169;-33
2023/04/02 09:03:55;;;;;;;3.47;2.13;;;5.90;99.90;;;;;;4934084;28;92368;-32
2023/04/02 09:06:21;;;;;;;6.28;4.20;;;6.00;99.90;;;;;;4934577;28;96865;-35
2023/04/02 09:08:50;;;;;;;3.08;2.30;;;6.00;99.90;;;;;;4933685;28;92992;-33
2023/04/02 09:11:18;;;;;;;;;;;6.10;99.90;;;;;;4943655;28;95537;-37
2023/04/02 09:13:46;;;;;;;3.03;2.50;;;6.00;99.90;;;;;;4942006;28;93860;-37
2023/04/02 09:16:20;;;;;;;3.72;2.35;;;5.90;99.90;;;;;;4939928;28;95226;-31
2023/04/02 09:18:46;;;;;;;2.70;2.03;;;6.00;99.90;;;;;;4937045;28;95236;-34
2023/04/02 09:21:37;;;;;;;2.00;1.75;;;6.10;99.90;;;;;;4947033;28;92131;-31
2023/04/02 09:24:04;;;;;;;7.53;1.65;;;6.20;99.90;;;;;;4935192;28;93099;-32
2023/04/02 09:26:31;;;;;;;3.10;1.77;;;6.20;99.90;;;;;;4937181;28;94419;-34
2023/04/02 09:29:12;;;;;;;1.97;1.77;;;6.40;99.90;;;;;;4937109;28;94222;-34
2023/04/02 09:31:39;;;;;;;2.90;1.75;;;6.50;99.90;;;;;;4937899;28;92693;-34
2023/04/02 09:34:28;;;;;;;3.92;2.50;;;6.60;99.90;;;;;;4937209;28;94197;-33
2023/04/02 09:36:54;;;;;;;3.28;2.08;;;6.70;99.90;;;;;;4949071;28;95965;-35
2023/04/02 09:39:25;;;;;;;3.42;1.77;;;6.90;99.90;;;;;;4936174;28;94928;-35
2023/04/02 09:41:51;;;;;;;3.40;2.40;;;7.00;99.90;;;;;;4936742;28;93085;-35
2023/04/02 09:44:23;;;;;;;3.15;1.50;;;7.10;99.90;;;;;;4937025;28;93673;-36
2023/04/02 09:46:53;;;;;;;2.08;1.77;;;7.10;99.90;;;;;;4935803;28;94788;-34
2023/04/02 09:49:22;;;;;;;5.35;2.33;;;7.10;99.90;;;;;;4935981;28;94778;-33
2023/04/02 09:52:05;;;;;;;11.13;2.50;;;6.90;99.90;;;;;;4936431;28;94852;-34
2023/04/02 09:54:31;;;;;;;2.70;1.60;;;7.00;99.90;;;;;;4937773;28;93078;-32
2023/04/02 09:57:03;;;;;;;3.75;1.45;;;7.00;99.90;;;;;;4936315;28;94761;-36
2023/04/02 09:59:29;;;;;;;2.03;1.45;;;7.20;99.90;;;;;;4936215;28;93996;-35
2023/04/02 10:01:54;;;;;;;4.30;3.05;;;7.20;99.90;;;;;;4935860;28;93724;-37
2023/04/02 10:04:37;;;;;;;5.57;1.52;;;7.20;99.90;;;;;;4937334;28;93776;-33
2023/04/02 10:07:05;;;;;;;7.32;2.78;;;7.40;99.90;;;;;;4936474;28;95479;-32
2023/04/02 10:09:36;;;;;;;3.42;2.35;;;7.40;99.90;;;;;;4940599;28;94114;-36
2023/04/02 10:12:06;;;;;;;4.63;2.40;;;7.60;99.90;;;;;;4936337;28;93939;-32
2023/04/02 10:14:43;;;;;;;1.77;1.67;;;7.50;99.90;;;;;;4936216;28;93813;-33
2023/04/02 10:17:20;;;;;;;5.68;2.63;;;7.60;99.90;;;;;;4949219;28;94400;-37
2023/04/02 10:19:54;;;;;;;3.67;2.67;;;7.60;99.90;;;;;;4940775;28;94500;-33
2023/04/02 10:22:21;;;;;;;2.65;1.52;;;7.30;99.90;;;;;;4936460;28;92306;-33
2023/04/02 10:24:47;;;;;;;2.35;2.15;;;7.30;99.90;;;;;;4948755;28;92227;-35
2023/04/02 10:27:36;;;;;;;3.83;1.88;;;7.40;99.90;;;;;;4934690;28;95819;-36
2023/04/02 10:30:14;;;;;;;3.17;1.58;;;7.40;99.90;;;;;;4935570;28;94314;-33
2023/04/02 10:32:59;;;;;;;2.83;2.17;;;7.50;99.90;;;;;;4935854;28;93494;-35
2023/04/02 10:35:41;;;;;;;4.50;2.40;;;7.60;99.90;;;;;;4936796;28;93870;-34
2023/04/02 10:38:21;;;;;;;4.38;1.85;;;7.50;99.90;;;;;;4935821;28;94665;-34
2023/04/02 10:41:27;;;;;;;2.22;1.58;;;7.60;99.90;;;;;;4941237;28;94201;-34
2023/04/02 10:44:04;;;;;;;2.25;2.03;;;7.80;99.90;;;;;;4874643;28;93513;-33
2023/04/02 10:46:36;;;;;;;2.08;1.80;;;7.80;99.90;;;;;;4936178;28;92376;-32
2023/04/02 10:49:27;;;;;;;3.30;1.77;;;7.80;99.90;;;;;;4934500;28;94698;-34
2023/04/02 10:52:18;;;;;;;2.10;1.65;;;8.00;99.90;;;;;;4935859;28;94435;-34
2023/04/02 10:54:44;;;;;;;1.95;1.75;;;8.20;99.90;;;;;;4935903;28;93457;-37
2023/04/02 10:57:32;;;;;;;5.00;2.22;;;8.20;99.90;;;;;;4935431;28;94625;-32
2023/04/02 11:00:08;;;;;;;2.67;2.45;;;8.40;99.90;;;;;;4935916;28;94574;-32
2023/04/02 11:02:46;;;;;;;1.88;1.20;;;8.40;99.90;;;;;;4935454;28;94723;-36
2023/04/02 11:05:26;;;;;;;1.55;1.38;;;8.40;99.90;;;;;;4935909;28;94254;-32
2023/04/02 11:08:00;;;;;;;2.65;2.20;;;8.40;99.90;;;;;;4934440;28;93952;-33
2023/04/02 11:10:30;;;;;;;4.68;2.30;;;8.30;96.70;;;;;;4936728;28;94908;-36
2023/04/02 11:13:02;;;;;;;1.98;1.50;;;8.20;99.90;;;;;;4936697;28;94200;-34
2023/04/02 11:15:29;;;;;;;3.38;1.67;;;8.40;99.90;;;;;;4946969;28;92141;-37
2023/04/02 11:17:55;;;;;;;2.13;1.77;;;8.40;99.90;;;;;;4937797;28;93053;-33
2023/04/02 11:20:42;;;;;;;3.78;2.08;;;8.30;99.90;;;;;;4935645;28;95815;-33
2023/04/02 11:23:18;;;;;;;3.58;1.83;;;8.40;99.90;;;;;;4942023;28;94995;-34
2023/04/02 11:25:45;;;;;;;3.28;1.75;;;8.50;99.90;;;;;;4940338;28;93094;-36
2023/04/02 11:28:31;;;;;;;4.10;1.63;;;8.50;99.90;;;;;;4935544;28;94238;-35
2023/04/02 11:30:57;;;;;;;2.42;1.88;;;8.60;99.90;;;;;;4934729;28;95631;-34
2023/04/02 11:33:34;;;;;;;3.97;2.13;;;8.50;99.90;;;;;;4946474;28;94821;-35
2023/04/02 11:36:00;;;;;;;10.25;2.47;;;8.60;99.90;;;;;;4936718;28;95122;-36
2023/04/02 11:38:26;;;;;;;1.38;1.27;;;8.70;99.90;;;;;;4948099;28;93620;-33
2023/04/02 11:40:56;;;;;;;2.10;1.60;;;8.60;99.90;;;;;;4935738;28;94625;-36
2023/04/02 11:43:35;;;;;;;2.03;1.83;;;8.70;99.90;;;;;;4934538;28;94749;-32
2023/04/02 11:46:25;;;;;;;3.42;2.08;;;8.70;99.90;;;;;;4934859;28;94137;-33
2023/04/02 11:48:53;;;;;;;1.48;1.38;;;8.90;97.00;;;;;;4948392;28;95806;-33
2023/04/02 11:51:19;;;;;;;3.22;2.05;;;8.90;99.90;;;;;;4934841;28;94443;-34
2023/04/02 11:53:45;;;;;;;2.65;1.63;;;8.90;99.90;;;;;;4935724;28;94304;-34
2023/04/02 11:56:27;;;;;;;4.43;1.92;;;8.90;92.30;;;;;;4935623;28;94229;-32
2023/04/02 11:59:04;;;;;;;2.03;1.35;;;9.10;99.90;;;;;;4969457;22;94686;-34
2023/04/02 12:02:04;;;;;;;10.45;2.00;;;9.20;99.90;;;;;;4915059;28;94925;-32
2023/04/02 12:05:06;;;;;;;5.75;2.35;;;9.10;90.90;;;;;;4915533;28;93240;-35
2023/04/02 12:08:04;;;;;;;4.80;1.30;;;9.20;99.90;;;;;;4915555;28;93518;-34
2023/04/02 12:11:00;;;;;;;2.05;1.73;;;9.30;99.90;;;;;;4905893;28;93148;-33
2023/04/02 12:13:38;;;;;;;5.75;2.72;;;9.30;99.90;;;;;;4915461;28;95851;-33
2023/04/02 12:16:05;;;;;;;3.35;2.38;;;9.30;99.90;;;;;;4915514;28;95098;-32
2023/04/02 12:18:31;;;;;;;3.75;2.10;;;9.30;99.90;;;;;;4914835;28;93243;-32
2023/04/02 12:20:57;;;;;;;1.50;1.40;;;9.10;92.00;;;;;;4914612;28;92179;-33
2023/04/02 12:23:30;;;;;;;1.75;1.55;;;9.00;99.90;;;;;;4915197;28;94691;-31
2023/04/02 12:26:00;;;;;;;1.80;1.70;;;9.00;99.90;;;;;;4915603;28;94480;-31
2023/04/02 12:28:30;;;;;;;4.28;1.85;;;9.10;99.90;;;;;;4915586;28;93091;-34
2023/04/02 12:31:07;;;;;;;1.77;1.50;;;9.30;99.90;;;;;;4917840;28;91952;-33
2023/04/02 12:33:38;;;;;;;2.20;2.00;;;9.30;99.90;;;;;;4918250;28;94364;-34
2023/04/02 12:36:19;;;;;;;1.75;1.42;;;9.40;99.90;;;;;;4915099;28;96660;-34
2023/04/02 12:38:56;;;;;;;2.63;1.83;;;9.40;99.90;;;;;;4914103;28;93930;-34
2023/04/02 12:41:30;;;;;;;1.92;1.67;;;9.20;99.90;;;;;;4914653;28;92901;-30
2023/04/02 12:44:01;;;;;;;1.90;1.80;;;9.30;87.80;;;;;;4913340;28;93363;-32
2023/04/02 12:46:28;;;;;;;6.07;2.28;;;9.40;95.20;;;;;;4915183;28;94231;-32
2023/04/02 12:49:00;;;;;;;2.47;1.65;;;9.40;99.90;;;;;;4915692;28;93162;-35
2023/04/02 12:51:26;;;;;;;1.63;1.25;;;9.30;99.90;;;;;;4918450;28;93880;-32
2023/04/02 12:53:52;;;;;;;3.50;1.35;;;9.50;96.10;;;;;;4917863;28;95052;-31
2023/04/02 12:56:22;;;;;;;2.05;1.70;;;9.60;95.80;;;;;;4917791;28;94663;-34
2023/04/02 12:58:54;;;;;;;1.88;1.77;;;9.60;91.00;;;;;;4905613;28;93406;-32
2023/04/02 13:01:26;;;;;;;4.70;1.65;;;9.80;99.90;;;;;;4917785;28;92842;-31
2023/04/02 13:04:07;;;;;;;3.17;2.35;;;9.90;99.90;;;;;;4916721;28;96537;-34
2023/04/02 13:06:34;;;;;;;1.85;1.45;;;9.90;97.60;;;;;;4917734;28;94935;-34
2023/04/02 13:09:02;;;;;;;2.92;2.00;;;9.80;99.90;;;;;;4917364;28;92226;-32
2023/04/02 13:11:39;;;;;;;1.98;1.75;;;9.50;96.40;;;;;;4918096;28;93926;-34
2023/04/02 13:14:17;;;;;;;2.15;1.58;;;9.40;85.50;;;;;;4910337;28;94347;-32
2023/04/02 13:16:43;;;;;;;1.58;1.50;;;9.20;94.20;;;;;;4913088;28;94590;-32
2023/04/02 13:19:10;;;;;;;2.15;1.73;;;9.30;99.90;;;;;;4917776;28;93636;-35
2023/04/02 13:21:36;;;;;;;4.07;2.20;;;9.60;92.00;;;;;;4918103;28;93044;-34
2023/04/02 13:24:01;;;;;;;3.00;2.33;;;9.50;98.80;;;;;;4916820;28;95257;-31
2023/04/02 13:26:28;;;;;;;4.18;2.15;;;9.60;96.90;;;;;;4917795;28;96639;-32
2023/04/02 13:29:02;;;;;;;1.80;1.70;;;9.70;99.90;;;;;;4916190;28;95616;-30
2023/04/02 13:31:32;;;;;;;3.15;1.90;;;9.90;99.90;;;;;;4918204;28;93368;-33
2023/04/02 13:33:58;;;;;;;7.35;2.00;;;9.70;98.10;;;;;;4916541;28;95584;-32
2023/04/02 13:36:24;;;;;;;2.50;1.58;;;9.80;99.90;;;;;;4917630;28;94074;-33
2023/04/02 13:38:50;;;;;;;1.75;1.63;;;9.70;84.80;;;;;;4917016;28;92185;-31